Terminal Aerodrome Forecast
Issued by NWS

Current Version | Previous Version | Text Only | Print | Product List | Glossary On
Versions: 1 2 3 4 5 6 7 8 9 10 11 12 13 14 15 16 17 18 19
000
FTUS44 KLZK 031100
TAFLIT
TAF
KLIT 031120Z 0312/0412 08003KT P6SM BKN030 BKN050
     FM031400 15004KT P6SM SCT030 OVC060
     FM031800 18005KT P6SM BKN035
     FM040100 14006KT P6SM SCT035 SCT080=

USA.gov is the U.S. government's official web portal to all federal, state and local government web resources and services.